createdAt,value
2022-08-25T00:02:06.867Z,100854.09
2022-08-25T00:04:36.525Z,100853.31
2022-08-25T00:07:05.974Z,100856.28
2022-08-25T00:09:35.767Z,100857.50
2022-08-25T00:12:03.952Z,100853.53
2022-08-25T00:14:35.655Z,100858.84
2022-08-25T00:17:07.285Z,100853.59
2022-08-25T00:19:38.068Z,100850.59
2022-08-25T00:22:06.819Z,100852.28
2022-08-25T00:24:33.621Z,100848.53
2022-08-25T00:27:03.930Z,100848.94
2022-08-25T00:29:31.864Z,100853.41
2022-08-25T00:31:59.956Z,100853.06
2022-08-25T00:34:34.234Z,100851.38
2022-08-25T00:37:03.138Z,100860.25
2022-08-25T00:39:30.653Z,100858.13
2022-08-25T00:41:58.177Z,100860.88
2022-08-25T00:44:28.934Z,100864.72
2022-08-25T00:47:00.807Z,100856.72
2022-08-25T00:49:37.942Z,100861.56
2022-08-25T00:52:33.157Z,100853.78
2022-08-25T00:55:17.689Z,100857.56
2022-08-25T00:57:50.280Z,100859.47
2022-08-25T01:00:26.606Z,100867.50
2022-08-25T01:02:53.990Z,100870.03
2022-08-25T01:05:21.569Z,100870.06
2022-08-25T01:07:49.948Z,100872.97
2022-08-25T01:10:19.761Z,100877.66
2022-08-25T01:12:47.072Z,100875.13
2022-08-25T01:15:15.235Z,100878.28
2022-08-25T01:17:53.620Z,100884.03
2022-08-25T01:20:24.555Z,100891.03
2022-08-25T01:22:57.733Z,100875.59
2022-08-25T01:25:53.512Z,100867.63
2022-08-25T01:28:21.558Z,100867.63
2022-08-25T01:30:49.515Z,100870.84
2022-08-25T01:33:19.539Z,100867.28
2022-08-25T01:35:47.153Z,100870.44
2022-08-25T01:38:14.700Z,100865.19
2022-08-25T01:40:43.106Z,100852.13
2022-08-25T01:43:15.547Z,100866.50
2022-08-25T01:45:47.557Z,100865.69
2022-08-25T01:48:15.816Z,100877.28
2022-08-25T01:50:44.308Z,100886.53
2022-08-25T01:53:28.150Z,100882.53
2022-08-25T01:56:05.750Z,100876.19
2022-08-25T01:58:40.746Z,100880.44
2022-08-25T02:01:12.312Z,100881.28
2022-08-25T02:03:42.378Z,100881.50
2022-08-25T02:06:13.664Z,100885.25
2022-08-25T02:08:41.304Z,100881.69
2022-08-25T02:11:13.563Z,100886.53
2022-08-25T02:13:42.405Z,100883.81
2022-08-25T02:16:16.968Z,100881.06
2022-08-25T02:18:45.657Z,100878.31
2022-08-25T02:21:12.745Z,100882.09
2022-08-25T02:23:39.606Z,100876.66
2022-08-25T02:26:06.442Z,100875.19
2022-08-25T02:28:33.258Z,100880.03
2022-08-25T02:31:01.197Z,100881.50
2022-08-25T02:33:29.084Z,100883.84
2022-08-25T02:36:01.615Z,100880.50
2022-08-25T02:38:29.830Z,100875.84
2022-08-25T02:40:58.667Z,100860.22
2022-08-25T02:43:28.236Z,100866.78
2022-08-25T02:45:58.119Z,100867.41
2022-08-25T02:48:25.049Z,100854.34
2022-08-25T02:50:53.153Z,100862.78
2022-08-25T02:53:21.820Z,100866.16
2022-08-25T02:55:48.774Z,100869.13
2022-08-25T02:58:16.246Z,100865.75
2022-08-25T03:00:43.246Z,100876.31
2022-08-25T03:03:10.246Z,100871.44
2022-08-25T03:05:37.135Z,100864.47
2022-08-25T03:08:06.539Z,100867.44
2022-08-25T03:10:33.944Z,100867.44
2022-08-25T03:13:00.719Z,100866.19
2022-08-25T03:15:27.914Z,100864.94
2022-08-25T03:17:59.909Z,100861.13
2022-08-25T03:20:28.657Z,100862.81
2022-08-25T03:22:55.559Z,100853.75
2022-08-25T03:25:41.091Z,100846.38
2022-08-25T03:28:08.519Z,100853.13
2022-08-25T03:30:35.484Z,100860.47
2022-08-25T03:33:02.460Z,100867.03
2022-08-25T03:35:31.005Z,100863.22
2022-08-25T03:37:59.808Z,100860.28
2022-08-25T03:40:27.194Z,100853.13
2022-08-25T03:42:56.908Z,100848.28
2022-08-25T03:45:25.507Z,100841.97
2022-08-25T03:47:54.267Z,100846.38
2022-08-25T03:50:22.996Z,100841.50
2022-08-25T03:52:57.582Z,100828.69
2022-08-25T03:55:26.071Z,100823.59
2022-08-25T03:57:54.806Z,100825.06
2022-08-25T04:00:23.653Z,100821.91
2022-08-25T04:02:50.576Z,100820.44
2022-08-25T04:05:17.768Z,100819.38
2022-08-25T04:07:44.579Z,100818.97
2022-08-25T04:10:12.566Z,100808.00
2022-08-25T04:12:39.730Z,100800.84
2022-08-25T04:15:08.865Z,100798.72
2022-08-25T04:17:39.844Z,100797.50
2022-08-25T04:20:09.866Z,100794.97
2022-08-25T04:22:37.895Z,100792.44
2022-08-25T04:25:07.143Z,100794.09
2022-08-25T04:27:34.094Z,100800.44
2022-08-25T04:30:01.290Z,100797.47
2022-08-25T04:32:28.523Z,100804.66
2022-08-25T04:34:55.349Z,100804.22
2022-08-25T04:37:22.519Z,100797.50
2022-08-25T04:39:49.348Z,100803.56
2022-08-25T04:42:16.378Z,100805.47
2022-08-25T04:44:43.482Z,100810.50
2022-08-25T04:47:11.211Z,100815.59
2022-08-25T04:49:38.024Z,100806.53
2022-08-25T04:52:04.896Z,100815.59
2022-08-25T04:54:37.321Z,100810.13
2022-08-25T04:57:04.583Z,100811.38
2022-08-25T04:59:31.463Z,100808.81
2022-08-25T05:02:02.881Z,100828.22
2022-08-25T05:04:31.318Z,100822.31
2022-08-25T05:06:58.733Z,100829.47
2022-08-25T05:09:26.460Z,100831.16
2022-08-25T05:11:55.064Z,100830.72
2022-08-25T05:14:26.599Z,100831.34
2022-08-25T05:16:55.329Z,100834.97
2022-08-25T05:19:24.379Z,100835.78
2022-08-25T05:21:52.435Z,100831.59
2022-08-25T05:24:20.548Z,100832.84
2022-08-25T05:26:47.483Z,100832.66
2022-08-25T05:29:14.851Z,100837.50
2022-08-25T05:31:47.088Z,100852.00
2022-08-25T05:34:18.505Z,100851.78
2022-08-25T05:36:45.319Z,100857.28
2022-08-25T05:39:12.411Z,100861.53
2022-08-25T05:41:39.476Z,100850.97
2022-08-25T05:44:06.602Z,100850.97
2022-08-25T05:46:33.882Z,100854.53
2022-08-25T05:49:01.181Z,100845.31
2022-08-25T05:51:28.083Z,100843.41
2022-08-25T05:53:55.023Z,100852.06
2022-08-25T05:56:22.011Z,100852.25
2022-08-25T05:58:49.560Z,100847.22
2022-08-25T06:01:46.688Z,100846.53
2022-08-25T06:04:15.996Z,100833.28
2022-08-25T06:06:42.810Z,100828.63
2022-08-25T06:09:10.388Z,100828.22
2022-08-25T06:11:40.228Z,100834.94
2022-08-25T06:14:09.507Z,100840.00
2022-08-25T06:16:37.077Z,100840.63
2022-08-25T06:19:04.576Z,100847.59
2022-08-25T06:21:31.566Z,100840.63
2022-08-25T06:23:58.775Z,100842.75
2022-08-25T06:26:26.558Z,100846.78
2022-08-25T06:28:54.007Z,100844.88
2022-08-25T06:31:22.671Z,100847.59
2022-08-25T06:33:50.466Z,100849.25
2022-08-25T06:36:17.569Z,100851.19
2022-08-25T06:38:44.449Z,100857.69
2022-08-25T06:41:12.675Z,100860.66
2022-08-25T06:43:48.081Z,100858.53
2022-08-25T06:46:21.626Z,100856.84
2022-08-25T06:48:49.530Z,100860.69
2022-08-25T06:51:19.942Z,100864.50
2022-08-25T06:53:49.536Z,100871.84
2022-08-25T06:56:19.179Z,100875.88
2022-08-25T06:58:46.846Z,100877.50
2022-08-25T07:01:27.006Z,100875.19
2022-08-25T07:03:57.778Z,100869.50
2022-08-25T07:06:27.580Z,100869.91
2022-08-25T07:08:55.018Z,100868.22
2022-08-25T07:11:21.893Z,100870.53
2022-08-25T07:13:50.601Z,100860.66
2022-08-25T07:16:20.669Z,100868.88
2022-08-25T07:18:49.068Z,100870.09
2022-08-25T07:21:17.436Z,100877.25
2022-08-25T07:23:46.537Z,100881.91
2022-08-25T07:26:36.767Z,100890.78
2022-08-25T07:29:12.482Z,100890.09
2022-08-25T07:31:40.003Z,100888.44
2022-08-25T07:34:26.816Z,100883.38
2022-08-25T07:36:57.087Z,100877.06
2022-08-25T07:39:25.898Z,100880.84
2022-08-25T07:41:53.558Z,100885.06
2022-08-25T07:44:22.960Z,100900.84
2022-08-25T07:46:51.319Z,100902.75
2022-08-25T07:49:23.370Z,100908.88
2022-08-25T07:52:04.599Z,100915.84
2022-08-25T07:54:35.193Z,100916.03
2022-08-25T07:57:05.038Z,100924.25
2022-08-25T07:59:39.467Z,100924.25
2022-08-25T08:02:18.481Z,100932.44
2022-08-25T08:04:51.166Z,100933.50
2022-08-25T08:07:33.607Z,100926.75
2022-08-25T08:13:00.706Z,100911.81
2022-08-25T08:15:29.888Z,100923.38
2022-08-25T08:17:58.558Z,100922.56
2022-08-25T08:20:27.107Z,100946.75
2022-08-25T08:22:54.573Z,100937.09
2022-08-25T08:25:27.665Z,100944.44
2022-08-25T08:27:55.804Z,100946.13
2022-08-25T08:30:26.229Z,100933.91
2022-08-25T08:33:11.723Z,100933.06
2022-08-25T08:35:41.567Z,100931.41
2022-08-25T08:38:14.760Z,100932.88
2022-08-25T08:42:11.612Z,100933.91
2022-08-25T08:44:45.007Z,100926.97
2022-08-25T08:47:28.202Z,100934.72
2022-08-25T08:50:33.059Z,100937.66
2022-08-25T08:53:34.090Z,100929.69
2022-08-25T08:56:11.842Z,100927.16
2022-08-25T08:59:19.397Z,100927.16
2022-08-25T09:01:57.542Z,100924.22
2022-08-25T09:04:49.307Z,100931.78
2022-08-25T09:07:32.268Z,100921.69
2022-08-25T09:09:59.680Z,100933.50
2022-08-25T09:12:34.502Z,100920.00
2022-08-25T09:15:12.750Z,100936.25
2022-08-25T09:18:11.962Z,100934.72
2022-08-25T09:20:52.291Z,100922.94
2022-08-25T09:24:05.271Z,100919.56
2022-08-25T09:27:14.107Z,100911.53
2022-08-25T09:30:10.174Z,100910.94
2022-08-25T09:32:52.598Z,100911.78
2022-08-25T09:35:29.063Z,100907.78
2022-08-25T09:38:12.083Z,100911.78
2022-08-25T09:40:47.909Z,100913.28
2022-08-25T09:43:45.039Z,100909.91
2022-08-25T09:46:27.144Z,100910.72
2022-08-25T09:48:57.596Z,100913.91
2022-08-25T09:51:37.998Z,100915.81
2022-08-25T09:54:18.436Z,100920.88
2022-08-25T09:56:58.808Z,100914.97
2022-08-25T09:59:35.680Z,100911.59
2022-08-25T10:02:25.708Z,100896.47
2022-08-25T10:04:53.431Z,100895.59
2022-08-25T10:07:29.716Z,100887.84
2022-08-25T10:10:01.306Z,100885.53
2022-08-25T10:12:51.225Z,100901.50
2022-08-25T10:15:32.147Z,100899.44
2022-08-25T10:18:18.922Z,100890.38
2022-08-25T10:21:07.946Z,100894.81
2022-08-25T10:23:39.604Z,100891.00
2022-08-25T10:26:24.527Z,100894.63
2022-08-25T10:29:02.106Z,100895.03
2022-08-25T10:31:58.100Z,100894.41
2022-08-25T10:34:51.925Z,100902.63
2022-08-25T10:37:40.628Z,100909.38
2022-08-25T10:40:20.865Z,100903.69
2022-08-25T10:42:56.790Z,100906.00
2022-08-25T10:45:45.962Z,100896.09
2022-08-25T10:48:28.014Z,100901.56
2022-08-25T10:51:25.862Z,100905.75
2022-08-25T10:54:26.042Z,100887.25
2022-08-25T10:57:08.166Z,100885.53
2022-08-25T11:00:09.939Z,100884.69
2022-08-25T11:02:58.193Z,100886.59
2022-08-25T11:05:40.493Z,100892.50
2022-08-25T11:08:33.605Z,100896.91
2022-08-25T11:11:06.259Z,100898.00
2022-08-25T11:13:54.562Z,100914.22
2022-08-25T11:16:41.383Z,100910.84
2022-08-25T11:19:33.973Z,100903.69
2022-08-25T11:22:23.544Z,100903.25
2022-08-25T11:25:26.212Z,100905.56
2022-08-25T11:28:13.255Z,100901.16
2022-08-25T11:30:40.857Z,100910.84
2022-08-25T11:33:12.995Z,100914.19
2022-08-25T11:36:11.460Z,100906.59
2022-08-25T11:39:00.456Z,100905.75
2022-08-25T11:42:01.772Z,100905.75
2022-08-25T11:45:10.003Z,100896.88
2022-08-25T11:48:14.978Z,100893.44
2022-08-25T11:51:03.147Z,100898.53
2022-08-25T11:53:37.986Z,100898.50
2022-08-25T11:56:35.247Z,100888.78
2022-08-25T11:59:02.355Z,100892.06
2022-08-25T12:01:34.961Z,100883.63
2022-08-25T12:04:34.117Z,100893.66
2022-08-25T12:07:13.762Z,100890.28
2022-08-25T12:09:54.006Z,100888.28
2022-08-25T12:12:45.551Z,100889.75
2022-08-25T12:15:32.882Z,100896.03
2022-08-25T12:18:45.840Z,100896.13
2022-08-25T12:21:15.495Z,100889.13
2022-08-25T12:23:46.397Z,100883.81
2022-08-25T12:26:49.457Z,100881.66
2022-08-25T12:29:44.272Z,100883.03
2022-08-25T12:33:05.525Z,100886.28
2022-08-25T12:35:59.217Z,100891.13
2022-08-25T12:38:50.917Z,100881.84
2022-08-25T12:41:31.075Z,100885.06
2022-08-25T12:44:35.818Z,100882.63
2022-08-25T12:47:23.695Z,100889.19
2022-08-25T12:49:51.079Z,100890.31
2022-08-25T12:52:28.079Z,100888.06
2022-08-25T12:54:58.768Z,100881.28
2022-08-25T12:57:57.795Z,100889.22
2022-08-25T13:01:32.856Z,100888.16
2022-08-25T13:04:15.443Z,100885.78
2022-08-25T13:07:26.159Z,100892.34
2022-08-25T13:10:17.670Z,100891.22
2022-08-25T13:13:09.221Z,100895.56
2022-08-25T13:15:46.977Z,100895.03
2022-08-25T13:18:21.134Z,100891.13
2022-08-25T13:20:54.054Z,100895.75
2022-08-25T13:23:27.560Z,100904.28
2022-08-25T13:25:58.359Z,100901.75
2022-08-25T13:28:40.692Z,100897.78
2022-08-25T13:31:18.638Z,100900.66
2022-08-25T13:33:55.010Z,100909.19
2022-08-25T13:36:52.030Z,100905.03
2022-08-25T13:39:45.967Z,100910.69
2022-08-25T13:42:16.571Z,100899.97
2022-08-25T13:44:51.952Z,100903.44
2022-08-25T13:47:45.243Z,100904.94
2022-08-25T13:50:31.212Z,100901.97
2022-08-25T13:53:21.218Z,100903.91
2022-08-25T13:55:58.395Z,100904.25
2022-08-25T13:58:38.651Z,100905.59
2022-08-25T14:01:22.916Z,100905.38
2022-08-25T14:04:50.549Z,100899.59
2022-08-25T14:07:25.512Z,100900.53
2022-08-25T14:10:07.922Z,100891.69
2022-08-25T14:12:44.680Z,100887.00
2022-08-25T14:15:17.932Z,100888.63
2022-08-25T14:18:00.812Z,100883.78
2022-08-25T14:20:31.501Z,100892.19
2022-08-25T14:23:16.238Z,100892.78
2022-08-25T14:25:46.428Z,100899.63
2022-08-25T14:28:19.057Z,100884.97
2022-08-25T14:30:56.239Z,100883.41
2022-08-25T14:33:35.068Z,100878.31
2022-08-25T14:36:04.847Z,100878.06
2022-08-25T14:38:33.774Z,100879.75
2022-08-25T14:41:00.841Z,100880.38
2022-08-25T14:43:32.016Z,100878.34
2022-08-25T14:46:02.753Z,100878.97
2022-08-25T14:48:37.491Z,100888.22
2022-08-25T14:51:05.396Z,100887.13
2022-08-25T14:53:33.939Z,100878.97
2022-08-25T14:56:01.083Z,100881.13
2022-08-25T14:58:34.243Z,100874.97
2022-08-25T15:01:03.249Z,100877.09
2022-08-25T15:03:35.366Z,100876.13
2022-08-25T15:06:03.683Z,100885.06
2022-08-25T15:08:50.383Z,100883.13
2022-08-25T15:11:18.189Z,100874.94
2022-08-25T15:13:49.667Z,100872.91
2022-08-25T15:16:39.884Z,100876.53
2022-08-25T15:19:14.508Z,100876.94
2022-08-25T15:21:45.075Z,100875.03
2022-08-25T15:24:17.582Z,100875.38
2022-08-25T15:26:56.483Z,100871.22
2022-08-25T15:29:26.385Z,100864.16
2022-08-25T15:31:53.659Z,100865.94
2022-08-25T15:34:20.832Z,100861.97
2022-08-25T15:36:48.215Z,100869.78
2022-08-25T15:39:18.073Z,100875.16
2022-08-25T15:41:49.487Z,100869.16
2022-08-25T15:44:16.731Z,100871.69
2022-08-25T15:46:47.164Z,100867.69
2022-08-25T15:49:20.762Z,100868.78
2022-08-25T15:51:55.418Z,100878.22
2022-08-25T15:54:26.774Z,100875.94
2022-08-25T15:56:55.678Z,100866.00
2022-08-25T15:59:23.847Z,100862.91
2022-08-25T16:01:55.695Z,100860.25
2022-08-25T16:04:25.455Z,100852.34
2022-08-25T16:06:53.095Z,100852.72
2022-08-25T16:09:22.695Z,100853.44
2022-08-25T16:11:56.797Z,100852.38
2022-08-25T16:14:27.662Z,100851.88
2022-08-25T16:16:58.496Z,100850.34
2022-08-25T16:19:28.840Z,100849.88
2022-08-25T16:21:56.986Z,100861.63
2022-08-25T16:24:24.798Z,100847.13
2022-08-25T16:26:52.755Z,100849.28
2022-08-25T16:29:22.836Z,100851.88
2022-08-25T16:31:54.815Z,100854.88
2022-08-25T16:34:24.716Z,100858.34
2022-08-25T16:36:55.393Z,100864.34
2022-08-25T16:39:23.888Z,100855.00
2022-08-25T16:41:52.438Z,100858.72
2022-08-25T16:44:22.392Z,100865.00
2022-08-25T16:46:54.563Z,100853.81
2022-08-25T16:49:24.463Z,100856.22
2022-08-25T16:51:57.693Z,100852.63
2022-08-25T16:54:45.162Z,100854.53
2022-08-25T16:57:12.573Z,100852.50
2022-08-25T16:59:39.463Z,100846.75
2022-08-25T17:02:06.871Z,100847.34
2022-08-25T17:04:33.737Z,100841.00
2022-08-25T17:07:01.740Z,100846.34
2022-08-25T17:09:29.937Z,100848.16
2022-08-25T17:11:57.394Z,100844.56
2022-08-25T17:14:25.299Z,100845.78
2022-08-25T17:16:55.252Z,100849.81
2022-08-25T17:19:25.115Z,100845.88
2022-08-25T17:21:54.927Z,100848.03
2022-08-25T17:24:29.214Z,100852.81
2022-08-25T17:26:59.054Z,100848.75
2022-08-25T17:29:26.571Z,100849.06
2022-08-25T17:31:53.536Z,100852.78
2022-08-25T17:34:23.101Z,100850.50
2022-08-25T17:36:50.635Z,100858.38
2022-08-25T17:39:22.052Z,100854.19
2022-08-25T17:41:50.107Z,100856.34
2022-08-25T17:44:17.060Z,100849.41
2022-08-25T17:46:47.519Z,100850.09
2022-08-25T17:49:17.253Z,100855.72
2022-08-25T17:51:44.249Z,100854.03
2022-08-25T17:54:12.336Z,100865.13
2022-08-25T17:56:39.477Z,100864.81
2022-08-25T17:59:06.894Z,100872.94
2022-08-25T18:01:40.418Z,100871.28
2022-08-25T18:04:15.650Z,100868.69
2022-08-25T18:06:45.461Z,100875.59
2022-08-25T18:09:12.690Z,100875.66
2022-08-25T18:11:39.765Z,100875.75
2022-08-25T18:14:06.923Z,100883.63
2022-08-25T18:16:38.734Z,100887.13
2022-08-25T18:19:06.601Z,100894.84
2022-08-25T18:21:37.935Z,100897.84
2022-08-25T18:24:06.314Z,100896.03
2022-08-25T18:26:33.917Z,100900.56
2022-08-25T18:29:01.872Z,100895.97
2022-08-25T18:31:29.315Z,100890.31
2022-08-25T18:33:57.626Z,100892.06
2022-08-25T18:36:24.832Z,100892.34
2022-08-25T18:39:11.532Z,100897.44
2022-08-25T18:41:42.620Z,100908.13
2022-08-25T18:44:11.028Z,100897.16
2022-08-25T18:46:39.754Z,100908.66
2022-08-25T18:49:06.670Z,100912.28
2022-08-25T18:51:35.563Z,100910.41
2022-08-25T18:54:03.598Z,100917.84
2022-08-25T18:56:30.583Z,100918.69
2022-08-25T18:58:58.482Z,100922.31
2022-08-25T19:01:25.619Z,100926.16
2022-08-25T19:03:53.017Z,100925.56
2022-08-25T19:06:20.880Z,100935.06
2022-08-25T19:08:48.975Z,100938.25
2022-08-25T19:11:17.618Z,100932.34
2022-08-25T19:13:50.327Z,100939.75
2022-08-25T19:16:38.528Z,100941.88
2022-08-25T19:19:08.111Z,100946.97
2022-08-25T19:21:36.052Z,100948.66
2022-08-25T19:24:03.382Z,100955.03
2022-08-25T19:26:30.742Z,100955.91
2022-08-25T19:28:57.843Z,100957.59
2022-08-25T19:31:25.861Z,100960.13
2022-08-25T19:33:54.869Z,100961.00
2022-08-25T19:36:28.017Z,100964.81
2022-08-25T19:38:58.712Z,100967.16
2022-08-25T19:41:27.847Z,100966.06
2022-08-25T19:43:57.395Z,100977.88
2022-08-25T19:46:35.743Z,100982.53
2022-08-25T19:49:15.784Z,100987.59
2022-08-25T19:51:47.696Z,100989.25
2022-08-25T19:54:24.303Z,100993.91
2022-08-25T19:56:55.183Z,100991.19
2022-08-25T19:59:40.708Z,100996.03
2022-08-25T20:02:15.418Z,100987.16
2022-08-25T20:04:49.559Z,100991.38
2022-08-25T20:07:23.725Z,100986.09
2022-08-25T20:09:52.881Z,100994.09
2022-08-25T20:12:21.949Z,100985.03
2022-08-25T20:14:51.142Z,100985.47
2022-08-25T20:17:24.799Z,100994.31
2022-08-25T20:19:59.837Z,101000.63
2022-08-25T20:22:30.205Z,100997.25
2022-08-25T20:25:01.399Z,101000.84
2022-08-25T20:27:37.620Z,101000.41
2022-08-25T20:30:15.385Z,100998.94
2022-08-25T20:32:45.631Z,101003.13
2022-08-25T20:35:14.543Z,101005.25
2022-08-25T20:37:44.980Z,101005.41
2022-08-25T20:40:16.122Z,101003.13
2022-08-25T20:42:44.378Z,101001.84
2022-08-25T20:45:14.819Z,100998.88
2022-08-25T20:47:41.921Z,100995.91
2022-08-25T20:50:09.650Z,101002.22
2022-08-25T20:52:39.202Z,101007.63
2022-08-25T20:55:11.203Z,100996.03
2022-08-25T20:57:39.306Z,101006.72
2022-08-25T21:00:08.282Z,101000.38
2022-08-25T21:02:36.654Z,101005.00
2022-08-25T21:05:05.022Z,101010.41
2022-08-25T21:07:32.133Z,101011.25
2022-08-25T21:10:06.878Z,101010.53
2022-08-25T21:12:38.391Z,101014.09
2022-08-25T21:15:07.066Z,101015.13
2022-08-25T21:17:34.950Z,101015.28
2022-08-25T21:20:08.178Z,101015.25
2022-08-25T21:22:37.026Z,101013.50
2022-08-25T21:25:05.722Z,101014.31
2022-08-25T21:27:33.892Z,101011.31
2022-08-25T21:30:00.724Z,101012.13
2022-08-25T21:32:27.577Z,101013.75
2022-08-25T21:34:55.392Z,101004.44
2022-08-25T21:37:23.648Z,101006.25
2022-08-25T21:39:51.601Z,101008.34
2022-08-25T21:42:21.259Z,101007.25
2022-08-25T21:44:48.684Z,101005.13
2022-08-25T21:47:15.975Z,101002.94
2022-08-25T21:49:48.934Z,101006.28
2022-08-25T21:52:16.287Z,101000.56
2022-08-25T21:54:44.794Z,101007.66
2022-08-25T21:57:12.134Z,100999.88
2022-08-25T21:59:41.183Z,101007.78
2022-08-25T22:02:11.449Z,101007.69
2022-08-25T22:04:40.268Z,101013.75
2022-08-25T22:07:09.257Z,101017.06
2022-08-25T22:09:36.561Z,101010.88
2022-08-25T22:12:05.287Z,101007.88
2022-08-25T22:14:32.755Z,101007.41
2022-08-25T22:17:00.024Z,101011.75
2022-08-25T22:19:27.843Z,101007.72
2022-08-25T22:21:56.010Z,101005.78
2022-08-25T22:24:28.420Z,101015.56
2022-08-25T22:26:56.214Z,101006.72
2022-08-25T22:29:25.863Z,101004.38
2022-08-25T22:32:00.690Z,101013.28
2022-08-25T22:34:32.753Z,101012.25
2022-08-25T22:37:01.796Z,101006.53
2022-08-25T22:39:32.399Z,101011.34
2022-08-25T22:42:02.052Z,101015.91
2022-08-25T22:44:29.097Z,101009.44
2022-08-25T22:46:56.334Z,101011.97
2022-08-25T22:49:23.847Z,101012.63
2022-08-25T22:51:53.725Z,101017.91
2022-08-25T22:54:22.225Z,101020.41
2022-08-25T22:56:49.043Z,101020.09
2022-08-25T22:59:15.847Z,101023.09
2022-08-25T23:01:45.103Z,101026.47
2022-08-25T23:04:14.768Z,101018.13
2022-08-25T23:06:42.388Z,101020.25
2022-08-25T23:09:10.887Z,101023.72
2022-08-25T23:11:39.423Z,101026.28
2022-08-25T23:14:10.388Z,101025.22
2022-08-25T23:16:39.584Z,101024.38
2022-08-25T23:19:13.709Z,101017.97
2022-08-25T23:22:01.096Z,101015.03
2022-08-25T23:24:30.516Z,101016.34
2022-08-25T23:27:03.919Z,101017.19
2022-08-25T23:29:32.515Z,101016.06
2022-08-25T23:31:59.400Z,101026.97
2022-08-25T23:34:28.592Z,101017.59
2022-08-25T23:36:56.943Z,101029.72
2022-08-25T23:39:24.087Z,101017.97
2022-08-25T23:41:51.678Z,101028.88
2022-08-25T23:44:21.558Z,101029.91
2022-08-25T23:46:50.071Z,101040.16
2022-08-25T23:49:20.848Z,101035.13
2022-08-25T23:51:50.384Z,101029.56
2022-08-25T23:54:21.333Z,101020.25
2022-08-25T23:56:51.613Z,101022.25
2022-08-25T23:59:24.821Z,101027.59
